Time;durP1;ratioP1;P1;durP2;ratioP2;P2;SDS_P1;SDS_P2;PMS_P1;PMS_P2;Temp;Humidity;BMP_temperature;BMP_pressure;BME280_temperature;BME280_humidity;BME280_pressure;Samples;Min_cycle;Max_cycle;Signal;HPM_P1;HPM_P2
2022/06/07 00:00:47;;;;;;;5.22;1.70;;;17.40;93.30;;;;;;5125886;27;45453;-72
2022/06/07 00:03:14;;;;;;;2.05;1.88;;;17.30;93.30;;;;;;5143473;27;45116;-72
2022/06/07 00:05:43;;;;;;;2.00;1.75;;;17.30;93.40;;;;;;5141199;27;45185;-72
2022/06/07 00:08:10;;;;;;;3.35;2.10;;;17.30;93.40;;;;;;5145007;27;47536;-72
2022/06/07 00:10:37;;;;;;;2.75;2.00;;;17.30;93.40;;;;;;5141905;27;45311;-72
2022/06/07 00:13:06;;;;;;;3.72;1.90;;;17.20;93.60;;;;;;5138112;27;45590;-72
2022/06/07 00:15:33;;;;;;;3.30;2.20;;;17.30;93.70;;;;;;5145300;27;45545;-72
2022/06/07 00:17:59;;;;;;;2.20;2.00;;;17.20;93.90;;;;;;5140302;27;47373;-72
2022/06/07 00:20:26;;;;;;;5.20;2.08;;;17.30;93.70;;;;;;5143534;27;45299;-72
2022/06/07 00:22:53;;;;;;;2.15;1.92;;;17.30;93.90;;;;;;5140418;27;46236;-72
2022/06/07 00:25:21;;;;;;;3.15;1.88;;;17.30;93.60;;;;;;5138347;27;45686;-72
2022/06/07 00:27:48;;;;;;;2.95;1.83;;;17.30;93.10;;;;;;5143703;27;47638;-72
2022/06/07 00:30:18;;;;;;;3.05;2.35;;;17.20;93.50;;;;;;5145202;27;45335;-72
2022/06/07 00:32:46;;;;;;;2.95;2.38;;;17.20;93.60;;;;;;5128904;27;45540;-72
2022/06/07 00:35:14;;;;;;;2.90;2.05;;;17.20;93.70;;;;;;5137344;27;45382;-72
2022/06/07 00:37:41;;;;;;;3.95;2.10;;;17.20;93.90;;;;;;5136271;27;48382;-72
2022/06/07 00:40:10;;;;;;;5.03;2.08;;;17.10;93.70;;;;;;5144741;27;45647;-72
2022/06/07 00:42:36;;;;;;;5.53;2.25;;;17.20;93.30;;;;;;5137280;27;45215;-72
2022/06/07 00:45:04;;;;;;;5.28;2.05;;;17.20;93.50;;;;;;5138114;27;45242;-72
2022/06/07 00:47:33;;;;;;;4.93;1.75;;;17.20;93.70;;;;;;5142668;27;46576;-72
2022/06/07 00:50:05;;;;;;;2.65;1.92;;;17.20;93.60;;;;;;5130211;27;45320;-72
2022/06/07 00:52:34;;;;;;;4.68;2.08;;;17.10;93.30;;;;;;5148200;27;45240;-72
2022/06/07 00:55:03;;;;;;;2.85;1.63;;;17.20;93.50;;;;;;5141710;27;45601;-72
2022/06/07 00:57:31;;;;;;;8.57;2.38;;;17.10;93.60;;;;;;5140174;27;45499;-72
2022/06/07 00:59:59;;;;;;;5.78;1.80;;;17.10;93.60;;;;;;5135385;27;46155;-72
2022/06/07 01:02:26;;;;;;;3.63;1.80;;;17.20;93.70;;;;;;5145234;27;45243;-72
2022/06/07 01:04:54;;;;;;;2.50;1.90;;;17.20;93.40;;;;;;5146338;27;46865;-72
2022/06/07 01:12:50;;;;;;;1.98;1.70;;;17.50;93.60;;;;;;5134328;27;45332;-73
2022/06/07 01:15:17;;;;;;;3.13;1.80;;;17.50;93.20;;;;;;5139966;27;45223;-72
2022/06/07 01:17:44;;;;;;;2.95;1.88;;;17.40;92.80;;;;;;5148969;27;46277;-72
2022/06/07 01:20:13;;;;;;;2.17;1.60;;;17.40;92.80;;;;;;5148032;27;45438;-73
2022/06/07 01:22:42;;;;;;;4.13;1.75;;;17.30;93.10;;;;;;5144403;27;45338;-72
2022/06/07 01:25:09;;;;;;;5.15;1.73;;;17.30;93.10;;;;;;5148206;27;45202;-72
2022/06/07 01:27:36;;;;;;;3.95;1.40;;;17.20;93.10;;;;;;5136924;27;46607;-72
2022/06/07 01:30:05;;;;;;;3.60;1.90;;;17.20;92.90;;;;;;5142780;27;45187;-72
2022/06/07 01:32:32;;;;;;;3.92;1.70;;;17.10;93.10;;;;;;5135707;27;45279;-72
2022/06/07 01:34:59;;;;;;;3.95;2.10;;;17.10;93.10;;;;;;5147167;27;45217;-72
2022/06/07 01:37:25;;;;;;;3.40;1.67;;;17.10;93.10;;;;;;5139180;27;45297;-73
2022/06/07 01:42:38;;;;;;;4.18;1.77;;;17.10;93.10;;;;;;5146905;27;45287;-73
2022/06/07 01:45:06;;;;;;;3.92;1.50;;;17.20;93.00;;;;;;5145406;27;45437;-72
2022/06/07 01:47:33;;;;;;;2.63;1.13;;;17.20;92.90;;;;;;5144846;27;47449;-72
2022/06/07 01:50:02;;;;;;;2.55;1.40;;;17.10;92.80;;;;;;5145249;27;45486;-72
2022/06/07 01:52:31;;;;;;;5.43;1.60;;;17.10;92.70;;;;;;5136515;27;45353;-73
2022/06/07 01:55:00;;;;;;;7.25;1.55;;;17.10;93.30;;;;;;5140577;27;45469;-72
2022/06/07 01:57:27;;;;;;;7.32;1.40;;;17.10;92.40;;;;;;5143722;27;47838;-72
2022/06/07 01:59:54;;;;;;;4.50;1.60;;;17.10;92.30;;;;;;5142964;27;45229;-73
2022/06/07 02:02:24;;;;;;;3.55;1.60;;;17.10;92.20;;;;;;5139931;27;45278;-73
2022/06/07 02:04:52;;;;;;;3.83;1.30;;;17.20;92.30;;;;;;5134371;27;45442;-73
2022/06/07 02:07:19;;;;;;;7.30;1.35;;;17.10;92.20;;;;;;5146189;27;45433;-73
2022/06/07 02:09:46;;;;;;;4.13;1.30;;;17.10;92.10;;;;;;5147404;27;45221;-73
2022/06/07 02:12:15;;;;;;;2.00;1.10;;;17.10;92.10;;;;;;5137892;27;45283;-73
2022/06/07 02:14:41;;;;;;;5.97;1.85;;;17.10;92.10;;;;;;5142630;27;45531;-73
2022/06/07 02:17:09;;;;;;;3.47;1.52;;;17.10;91.80;;;;;;5152770;27;46323;-73
2022/06/07 02:19:36;;;;;;;2.38;1.23;;;17.10;92.00;;;;;;5135398;27;45251;-72
2022/06/07 02:22:05;;;;;;;3.15;1.38;;;17.00;92.20;;;;;;5137371;27;45214;-73
2022/06/07 02:24:32;;;;;;;2.42;1.10;;;17.00;91.90;;;;;;5142625;27;45541;-72
2022/06/07 02:27:05;;;;;;;3.72;1.35;;;17.10;91.80;;;;;;5149066;27;47418;-72
2022/06/07 02:29:37;;;;;;;3.38;1.20;;;17.10;91.90;;;;;;5148298;27;45245;-72
2022/06/07 02:32:08;;;;;;;3.40;1.10;;;17.10;91.50;;;;;;5139391;27;45387;-72
2022/06/07 02:34:38;;;;;;;5.25;1.55;;;17.00;91.80;;;;;;5142411;27;45140;-73
2022/06/07 02:37:06;;;;;;;5.57;1.30;;;17.10;91.40;;;;;;5147592;27;47523;-72
2022/06/07 02:39:34;;;;;;;3.92;1.70;;;17.00;91.60;;;;;;5141762;27;45273;-73
2022/06/07 02:42:02;;;;;;;6.25;1.30;;;17.00;91.50;;;;;;5135632;27;45432;-72
2022/06/07 02:44:29;;;;;;;3.92;1.25;;;17.00;91.20;;;;;;5135548;27;45156;-72
2022/06/07 02:46:57;;;;;;;4.63;1.40;;;17.00;91.40;;;;;;5150461;27;46575;-72
2022/06/07 02:49:24;;;;;;;4.90;1.35;;;17.00;91.70;;;;;;5145850;27;45213;-72
2022/06/07 02:51:51;;;;;;;4.45;1.30;;;17.00;91.70;;;;;;5137890;27;45371;-73
2022/06/07 02:54:18;;;;;;;3.25;1.33;;;17.10;91.50;;;;;;5151444;27;45557;-73
2022/06/07 02:56:45;;;;;;;2.25;1.00;;;17.10;91.00;;;;;;5145267;27;46561;-72
2022/06/07 02:59:11;;;;;;;2.33;1.10;;;17.00;91.10;;;;;;5137646;27;45319;-73
2022/06/07 03:01:38;;;;;;;3.15;1.20;;;17.00;91.30;;;;;;5140815;27;45302;-73
2022/06/07 03:04:06;;;;;;;7.72;1.40;;;17.00;91.50;;;;;;5148980;27;45224;-73
2022/06/07 03:06:33;;;;;;;5.72;1.35;;;17.00;91.30;;;;;;5144994;27;46720;-73
2022/06/07 03:09:00;;;;;;;5.05;1.27;;;17.00;91.20;;;;;;5148279;27;45242;-73
2022/06/07 03:11:27;;;;;;;6.13;1.40;;;16.90;91.60;;;;;;5140133;27;45128;-72
2022/06/07 03:13:54;;;;;;;4.90;1.10;;;17.00;91.30;;;;;;5140406;27;45458;-73
2022/06/07 03:16:20;;;;;;;2.90;1.30;;;17.10;90.90;;;;;;5142054;27;46365;-72
2022/06/07 03:18:47;;;;;;;2.03;1.23;;;17.10;91.20;;;;;;5150447;27;45231;-73
2022/06/07 03:21:16;;;;;;;2.00;1.05;;;17.10;90.80;;;;;;5140554;27;45478;-72
2022/06/07 03:23:42;;;;;;;4.32;1.52;;;17.10;90.90;;;;;;5136266;27;45302;-73
2022/06/07 03:26:12;;;;;;;3.10;1.10;;;17.10;90.90;;;;;;5133880;27;45259;-72
2022/06/07 03:28:39;;;;;;;3.55;1.30;;;17.00;90.90;;;;;;5131781;27;45264;-73
2022/06/07 03:31:07;;;;;;;5.70;1.77;;;17.00;91.10;;;;;;5139461;27;45192;-73
2022/06/07 03:33:35;;;;;;;2.22;0.93;;;17.00;90.90;;;;;;5141961;27;45500;-73
2022/06/07 03:36:11;;;;;;;5.25;1.10;;;17.00;90.80;;;;;;5141979;27;45410;-73
2022/06/07 03:38:41;;;;;;;7.00;1.30;;;16.90;90.70;;;;;;5147847;27;46100;-73
2022/06/07 03:41:08;;;;;;;2.38;1.10;;;17.00;91.40;;;;;;5137037;27;45431;-73
2022/06/07 03:43:35;;;;;;;4.22;1.05;;;17.00;90.80;;;;;;5136850;27;45286;-73
2022/06/07 03:46:10;;;;;;;5.82;1.30;;;17.00;91.10;;;;;;5138969;27;47147;-73
2022/06/07 03:48:37;;;;;;;6.78;1.63;;;17.00;91.00;;;;;;5143800;27;45719;-73
2022/06/07 03:51:04;;;;;;;3.00;0.95;;;17.10;91.00;;;;;;5139618;27;45409;-73
2022/06/07 03:53:31;;;;;;;4.07;1.23;;;17.00;90.90;;;;;;5142007;27;46482;-73
2022/06/07 03:55:59;;;;;;;4.18;1.00;;;17.10;90.70;;;;;;5146262;27;47426;-73
2022/06/07 03:58:26;;;;;;;4.25;1.00;;;17.10;90.60;;;;;;5148444;27;45258;-72
2022/06/07 04:00:57;;;;;;;2.83;1.20;;;17.10;90.60;;;;;;5141465;27;45262;-73
2022/06/07 04:03:24;;;;;;;4.35;1.50;;;17.10;90.60;;;;;;5138223;27;45643;-73
2022/06/07 04:05:52;;;;;;;3.90;1.20;;;17.20;90.60;;;;;;5136272;27;45240;-72
2022/06/07 04:08:19;;;;;;;2.78;1.00;;;17.20;90.60;;;;;;5146335;27;45204;-73
2022/06/07 04:10:48;;;;;;;4.50;1.50;;;17.20;90.40;;;;;;5144525;27;45388;-73
2022/06/07 04:13:18;;;;;;;4.53;1.33;;;17.20;90.50;;;;;;5140958;27;45319;-73
2022/06/07 04:15:45;;;;;;;2.30;1.17;;;17.20;90.50;;;;;;5342766;22;46203;-71
2022/06/07 04:18:12;;;;;;;3.17;0.95;;;17.30;90.40;;;;;;5078966;27;45262;-71
2022/06/07 04:20:39;;;;;;;3.15;1.20;;;17.30;90.30;;;;;;5093312;27;45255;-72
2022/06/07 04:23:08;;;;;;;3.50;1.17;;;17.30;90.30;;;;;;5090563;27;45396;-72
2022/06/07 04:25:36;;;;;;;8.65;1.35;;;17.30;90.10;;;;;;5094448;27;45282;-72
2022/06/07 04:28:03;;;;;;;2.60;1.10;;;17.30;90.20;;;;;;5080106;27;45153;-72
2022/06/07 04:30:32;;;;;;;8.75;1.38;;;17.40;90.30;;;;;;5075562;28;45312;-72
2022/06/07 04:32:59;;;;;;;2.85;1.02;;;17.40;90.30;;;;;;5079977;27;45516;-72
2022/06/07 04:35:27;;;;;;;4.43;1.00;;;17.40;90.10;;;;;;5085128;27;47418;-72
2022/06/07 04:37:55;;;;;;;1.45;0.82;;;17.50;90.40;;;;;;5091350;27;45165;-72
2022/06/07 04:40:22;;;;;;;2.85;0.77;;;17.50;90.30;;;;;;5078415;27;45190;-72
2022/06/07 04:42:49;;;;;;;3.92;1.33;;;17.60;90.30;;;;;;5099529;27;45195;-72
2022/06/07 04:45:16;;;;;;;3.22;1.13;;;17.60;90.30;;;;;;5086759;27;45541;-72
2022/06/07 04:47:46;;;;;;;3.05;0.90;;;17.60;90.10;;;;;;5082734;27;45382;-72
2022/06/07 04:50:16;;;;;;;6.82;1.00;;;17.60;90.00;;;;;;5083023;27;45213;-72
2022/06/07 04:52:43;;;;;;;1.42;0.80;;;17.60;90.20;;;;;;5083850;27;45170;-72
2022/06/07 04:55:11;;;;;;;2.55;1.10;;;17.60;90.40;;;;;;5081393;28;47367;-72
2022/06/07 04:57:37;;;;;;;3.50;0.98;;;17.60;90.50;;;;;;5073385;27;45204;-72
2022/06/07 05:00:06;;;;;;;4.40;1.20;;;17.70;90.30;;;;;;5078087;28;45411;-72
2022/06/07 05:02:35;;;;;;;4.50;1.08;;;17.70;90.40;;;;;;5075300;27;45227;-72
2022/06/07 05:05:03;;;;;;;3.20;1.05;;;17.70;90.50;;;;;;5076952;27;46132;-72
2022/06/07 05:07:30;;;;;;;2.80;0.85;;;17.80;90.50;;;;;;5074721;27;45440;-72
2022/06/07 05:09:57;;;;;;;3.35;1.08;;;17.80;90.60;;;;;;5077148;28;45327;-72
2022/06/07 05:12:24;;;;;;;3.72;1.10;;;17.80;90.70;;;;;;5070226;27;45360;-72
2022/06/07 05:14:51;;;;;;;5.70;1.30;;;17.80;90.90;;;;;;5073937;28;46292;-72
2022/06/07 05:17:17;;;;;;;5.40;1.60;;;17.80;90.70;;;;;;5077207;27;45350;-72
2022/06/07 05:19:44;;;;;;;5.38;1.20;;;17.90;90.40;;;;;;5086483;27;46141;-72
2022/06/07 05:22:12;;;;;;;2.63;1.13;;;17.80;90.70;;;;;;5078657;27;45252;-72
2022/06/07 05:24:39;;;;;;;2.90;1.17;;;17.80;90.50;;;;;;5078876;27;45365;-72
2022/06/07 05:27:10;;;;;;;4.70;1.17;;;17.90;90.40;;;;;;5086977;27;45565;-72
2022/06/07 05:29:46;;;;;;;8.15;1.20;;;17.90;90.40;;;;;;5077083;27;45464;-72
2022/06/07 05:32:13;;;;;;;3.97;0.85;;;17.90;90.20;;;;;;5071359;27;45300;-72
2022/06/07 05:34:40;;;;;;;4.68;1.10;;;17.90;90.50;;;;;;5075041;27;46457;-72
2022/06/07 05:37:07;;;;;;;3.97;1.00;;;17.90;90.30;;;;;;5075919;27;45626;-71
2022/06/07 05:39:35;;;;;;;2.50;1.00;;;17.90;90.40;;;;;;5070308;27;45437;-72
2022/06/07 05:42:02;;;;;;;4.47;1.25;;;18.00;90.40;;;;;;5072126;27;45224;-72
2022/06/07 05:44:29;;;;;;;3.88;0.73;;;18.00;90.30;;;;;;5077651;27;46692;-72
2022/06/07 05:46:56;;;;;;;3.88;0.90;;;18.10;90.30;;;;;;5080752;27;45243;-72
2022/06/07 05:49:23;;;;;;;2.33;0.82;;;18.10;90.30;;;;;;5075568;27;46148;-72
2022/06/07 05:51:50;;;;;;;3.15;0.93;;;18.10;90.20;;;;;;5082478;27;45701;-72
2022/06/07 05:54:18;;;;;;;3.72;1.10;;;18.20;90.30;;;;;;5073439;27;45286;-72
2022/06/07 05:56:47;;;;;;;3.17;0.90;;;18.20;90.20;;;;;;5067167;27;45610;-72
2022/06/07 05:59:14;;;;;;;2.67;0.80;;;18.20;90.50;;;;;;5074131;27;45926;-72
2022/06/07 06:01:41;;;;;;;4.97;0.90;;;18.20;90.00;;;;;;5087385;27;45383;-72
2022/06/07 06:04:10;;;;;;;3.92;0.65;;;18.30;90.20;;;;;;5083404;27;45649;-72
2022/06/07 06:06:38;;;;;;;2.53;1.05;;;18.30;90.10;;;;;;5082217;27;45433;-71
2022/06/07 06:11:51;;;;;;;3.38;0.60;;;18.30;89.90;;;;;;5075674;27;45377;-72
2022/06/07 06:14:19;;;;;;;3.53;1.05;;;18.30;88.50;;;;;;5086583;27;45426;-72
2022/06/07 06:16:46;;;;;;;3.50;0.90;;;18.30;88.40;;;;;;5085620;27;45388;-72
2022/06/07 06:19:13;;;;;;;4.07;0.90;;;18.40;89.90;;;;;;5080633;27;45300;-71
2022/06/07 06:21:41;;;;;;;2.47;0.90;;;18.40;89.20;;;;;;5070972;27;45388;-72
2022/06/07 06:24:10;;;;;;;4.70;0.80;;;18.50;89.10;;;;;;5079361;27;47073;-72
2022/06/07 06:26:38;;;;;;;5.75;1.02;;;18.60;88.50;;;;;;5082013;28;46149;-72
2022/06/07 06:29:08;;;;;;;2.88;1.00;;;18.60;87.10;;;;;;5075270;27;45306;-72
2022/06/07 06:31:35;;;;;;;3.95;1.05;;;18.60;86.40;;;;;;5078303;27;45245;-72
2022/06/07 06:34:03;;;;;;;3.08;0.93;;;18.70;85.30;;;;;;5073302;27;46395;-72
2022/06/07 06:36:31;;;;;;;2.20;0.90;;;18.60;85.80;;;;;;5077693;27;45306;-72
2022/06/07 06:38:59;;;;;;;3.15;0.80;;;18.60;86.40;;;;;;5071836;27;45395;-72
2022/06/07 06:41:28;;;;;;;3.80;0.80;;;18.70;87.30;;;;;;5077756;27;45486;-72
2022/06/07 06:43:56;;;;;;;2.90;0.90;;;18.70;83.30;;;;;;5077066;27;47890;-72
2022/06/07 06:46:27;;;;;;;4.95;0.98;;;18.70;84.90;;;;;;5080163;27;45331;-72
2022/06/07 06:48:54;;;;;;;2.58;0.90;;;18.80;84.70;;;;;;5079548;27;45257;-72
2022/06/07 06:51:23;;;;;;;2.33;0.93;;;18.80;82.30;;;;;;5087171;27;45459;-72
2022/06/07 06:53:50;;;;;;;6.30;1.00;;;18.80;83.90;;;;;;5093732;27;47446;-72
2022/06/07 06:56:20;;;;;;;3.67;1.30;;;18.70;83.60;;;;;;5088127;27;45160;-72
2022/06/07 06:58:47;;;;;;;2.22;0.80;;;18.70;83.90;;;;;;5087354;27;45368;-72
2022/06/07 07:01:16;;;;;;;4.55;0.73;;;18.80;85.10;;;;;;5088767;28;45565;-72
2022/06/07 07:03:45;;;;;;;3.95;1.00;;;18.80;84.50;;;;;;5088910;27;46176;-72
2022/06/07 07:06:14;;;;;;;3.28;0.80;;;18.80;84.10;;;;;;5086846;27;45778;-72
2022/06/07 07:08:43;;;;;;;4.47;0.90;;;18.80;84.70;;;;;;5094531;27;45329;-72
2022/06/07 07:11:12;;;;;;;2.90;0.90;;;18.90;82.90;;;;;;5080969;27;45442;-72
2022/06/07 07:13:40;;;;;;;1.83;0.80;;;18.70;83.10;;;;;;5087451;27;47420;-72
2022/06/07 07:16:08;;;;;;;4.35;1.05;;;18.80;81.00;;;;;;5092378;27;45226;-72
2022/06/07 07:18:36;;;;;;;1.50;0.60;;;18.70;81.30;;;;;;5079797;27;45408;-71
2022/06/07 07:21:06;;;;;;;4.80;1.10;;;18.60;81.30;;;;;;5083967;27;45564;-74
2022/06/07 07:23:33;;;;;;;3.13;0.73;;;18.70;82.60;;;;;;5080221;27;46207;-74
2022/06/07 07:26:06;;;;;;;16.35;1.48;;;18.70;82.10;;;;;;5081381;27;45305;-72
2022/06/07 07:28:33;;;;;;;12.43;1.80;;;18.80;84.00;;;;;;5084123;27;45299;-72
2022/06/07 07:31:00;;;;;;;8.35;1.30;;;18.80;83.50;;;;;;5072434;27;45362;-72
2022/06/07 07:33:27;;;;;;;10.82;1.40;;;18.80;83.20;;;;;;5082732;27;46367;-72
2022/06/07 07:35:54;;;;;;;2.20;0.88;;;18.70;84.50;;;;;;5089615;27;46769;-72
2022/06/07 07:38:23;;;;;;;8.38;1.70;;;18.80;83.80;;;;;;5076663;27;45143;-72
2022/06/07 07:40:50;;;;;;;2.70;0.93;;;18.80;80.80;;;;;;5078759;27;45295;-72
2022/06/07 07:43:17;;;;;;;5.50;1.50;;;18.80;82.40;;;;;;5072119;27;46550;-72
2022/06/07 07:45:44;;;;;;;5.60;1.17;;;18.80;80.80;;;;;;5078995;27;45212;-72
2022/06/07 07:48:11;;;;;;;6.85;0.90;;;18.80;80.50;;;;;;5086381;27;45652;-72
2022/06/07 07:50:38;;;;;;;3.33;1.00;;;18.90;82.90;;;;;;5078354;27;46866;-72
2022/06/07 07:53:05;;;;;;;9.23;1.40;;;18.90;81.70;;;;;;5083293;27;45484;-72
2022/06/07 07:55:33;;;;;;;5.88;1.08;;;19.00;81.50;;;;;;5078373;27;45370;-72
2022/06/07 07:58:00;;;;;;;3.78;1.15;;;19.00;82.10;;;;;;5079038;27;45386;-72
2022/06/07 08:00:29;;;;;;;4.40;1.10;;;19.10;81.90;;;;;;5085285;27;45358;-72
2022/06/07 08:02:56;;;;;;;2.88;0.98;;;19.20;81.20;;;;;;5086467;27;45376;-72
2022/06/07 08:05:23;;;;;;;4.65;0.88;;;19.10;79.20;;;;;;5083011;27;45365;-71
2022/06/07 08:07:50;;;;;;;2.20;0.80;;;19.20;76.70;;;;;;5078013;27;45471;-71
2022/06/07 08:10:17;;;;;;;4.55;1.10;;;19.10;77.50;;;;;;5079168;27;45551;-71
2022/06/07 08:12:45;;;;;;;5.00;1.00;;;19.00;77.30;;;;;;5080600;27;45651;-71
2022/06/07 08:15:13;;;;;;;4.32;0.85;;;19.10;76.40;;;;;;5080872;27;45982;-71
2022/06/07 08:17:40;;;;;;;4.22;0.90;;;19.10;77.40;;;;;;5078493;27;45515;-71
2022/06/07 08:20:08;;;;;;;4.05;0.85;;;19.10;76.30;;;;;;5087768;27;45286;-71
2022/06/07 08:22:35;;;;;;;4.15;0.80;;;19.20;76.90;;;;;;5083378;27;45710;-71
2022/06/07 08:25:01;;;;;;;2.53;0.70;;;19.20;75.60;;;;;;5084850;27;45292;-71
2022/06/07 08:27:28;;;;;;;2.30;0.77;;;19.10;77.40;;;;;;5078750;27;45279;-71
2022/06/07 08:29:56;;;;;;;5.18;0.93;;;19.20;77.60;;;;;;5084820;27;45518;-71
2022/06/07 08:32:23;;;;;;;1.73;0.77;;;19.30;77.60;;;;;;5074164;27;45603;-71
2022/06/07 08:37:34;;;;;;;3.47;0.80;;;19.40;74.70;;;;;;5091651;27;45293;-71
2022/06/07 08:40:01;;;;;;;2.47;0.82;;;19.40;82.60;;;;;;5078158;27;45562;-71
2022/06/07 08:42:32;;;;;;;4.30;0.88;;;19.50;80.00;;;;;;5086648;27;47323;-71
2022/06/07 08:45:02;;;;;;;1.60;0.70;;;19.80;80.30;;;;;;5090233;27;45216;-71
2022/06/07 08:47:34;;;;;;;2.72;0.90;;;19.40;77.70;;;;;;5084366;27;45332;-70
2022/06/07 08:50:08;;;;;;;1.88;0.80;;;19.60;81.40;;;;;;5082260;28;45237;-71
2022/06/07 08:52:36;;;;;;;5.57;1.10;;;19.90;75.20;;;;;;5083730;27;46719;-71
2022/06/07 08:55:13;;;;;;;4.10;0.90;;;19.50;76.80;;;;;;5087713;27;46589;-71
2022/06/07 08:57:39;;;;;;;3.28;0.60;;;19.00;77.00;;;;;;5078323;27;45149;-71
2022/06/07 09:00:17;;;;;;;2.83;0.70;;;19.30;75.90;;;;;;5083889;27;45314;-71
2022/06/07 09:03:03;;;;;;;4.80;0.93;;;19.50;77.70;;;;;;5082583;27;45569;-72
2022/06/07 09:05:30;;;;;;;9.27;1.95;;;19.50;76.80;;;;;;5082968;27;45451;-72
2022/06/07 09:07:58;;;;;;;3.80;0.68;;;19.60;77.90;;;;;;5083564;27;46840;-71
2022/06/07 09:13:17;;;;;;;1.90;0.80;;;19.80;77.30;;;;;;5084704;27;45272;-71
2022/06/07 09:15:48;;;;;;;3.05;0.82;;;19.90;77.40;;;;;;5071275;27;45311;-71
2022/06/07 09:18:18;;;;;;;9.88;1.38;;;19.90;78.10;;;;;;5078764;27;45274;-71
2022/06/07 09:20:48;;;;;;;3.25;0.80;;;19.90;77.00;;;;;;5084722;27;45796;-71
2022/06/07 09:23:20;;;;;;;2.83;0.70;;;19.80;75.30;;;;;;5085252;27;46124;-71
2022/06/07 09:25:50;;;;;;;4.28;0.82;;;19.70;76.80;;;;;;5079399;28;45916;-71
2022/06/07 09:28:20;;;;;;;2.75;0.90;;;19.80;77.10;;;;;;5082778;28;45357;-71
2022/06/07 09:31:00;;;;;;;10.10;1.08;;;19.70;75.70;;;;;;5085346;27;45398;-71
2022/06/07 09:33:29;;;;;;;2.15;0.88;;;19.70;78.30;;;;;;5080915;27;46575;-71
2022/06/07 09:35:58;;;;;;;2.42;0.73;;;19.80;75.90;;;;;;5081449;28;46335;-71
2022/06/07 09:38:32;;;;;;;2.58;0.70;;;19.80;75.20;;;;;;5082082;27;46130;-71
2022/06/07 09:41:36;;;;;;;3.88;1.10;;;19.70;75.30;;;;;;5084146;27;45347;-71
2022/06/07 09:43:55;;;;;;;4.82;0.90;;;19.80;77.20;;;;;;5076530;27;45326;-71
2022/06/07 09:46:26;;;;;;;3.58;0.80;;;19.80;76.20;;;;;;5084969;27;45410;-71
2022/06/07 09:48:53;;;;;;;2.17;0.70;;;19.80;75.60;;;;;;5086380;27;45247;-71
2022/06/07 09:51:22;;;;;;;4.18;0.70;;;19.90;78.20;;;;;;5087260;27;45509;-72
2022/06/07 09:54:01;;;;;;;1.27;0.65;;;19.90;75.40;;;;;;5084972;27;45988;-71
2022/06/07 09:56:34;;;;;;;2.33;0.80;;;19.80;75.00;;;;;;5084438;27;45673;-71
2022/06/07 09:59:21;;;;;;;2.45;0.70;;;19.90;75.70;;;;;;5079700;27;45352;-71
2022/06/07 10:01:55;;;;;;;2.63;0.60;;;19.90;75.40;;;;;;5074443;28;45397;-71
2022/06/07 10:04:30;;;;;;;1.20;0.55;;;19.90;74.70;;;;;;5086991;27;45438;-71
2022/06/07 10:07:01;;;;;;;1.65;0.77;;;20.00;75.70;;;;;;5082046;27;45228;-71
2022/06/07 10:09:42;;;;;;;4.10;0.82;;;20.10;73.90;;;;;;5086646;27;45287;-71
2022/06/07 10:12:19;;;;;;;2.45;0.80;;;20.10;74.90;;;;;;5073823;28;45477;-71
2022/06/07 10:14:52;;;;;;;1.23;0.80;;;20.10;76.80;;;;;;5084275;27;47899;-71
2022/06/07 10:17:34;;;;;;;2.75;0.80;;;20.10;75.10;;;;;;5077777;28;45611;-71
2022/06/07 10:20:07;;;;;;;4.43;0.90;;;20.10;73.50;;;;;;5085567;27;45409;-71
2022/06/07 10:23:02;;;;;;;2.50;0.63;;;20.10;73.80;;;;;;5077156;27;45377;-71
2022/06/07 10:25:37;;;;;;;2.58;0.70;;;20.10;75.50;;;;;;5082726;27;46677;-69
2022/06/07 10:28:13;;;;;;;2.13;0.85;;;20.20;77.30;;;;;;5082128;27;46719;-71
2022/06/07 10:30:47;;;;;;;3.00;1.00;;;20.30;78.30;;;;;;5079805;27;45145;-71
2022/06/07 10:33:33;;;;;;;9.13;1.10;;;20.30;75.70;;;;;;5082376;27;47285;-70
2022/06/07 10:36:08;;;;;;;3.58;1.10;;;20.30;72.80;;;;;;5082813;27;46186;-73
2022/06/07 10:38:46;;;;;;;4.40;1.30;;;20.30;74.90;;;;;;5079992;27;45439;-71
2022/06/07 10:41:22;;;;;;;4.22;0.85;;;20.40;73.50;;;;;;5087921;27;45542;-71
2022/06/07 10:43:57;;;;;;;3.15;1.02;;;20.40;77.30;;;;;;5087825;27;45183;-71
2022/06/07 10:46:27;;;;;;;2.50;0.93;;;20.40;75.70;;;;;;5084551;27;46455;-71
2022/06/07 10:49:04;;;;;;;2.25;0.80;;;20.30;72.70;;;;;;5082850;28;46124;-71
2022/06/07 10:54:25;;;;;;;2.47;0.82;;;20.60;76.90;;;;;;5084516;27;45584;-71
2022/06/07 10:57:02;;;;;;;2.53;0.90;;;20.80;77.40;;;;;;5081870;27;46288;-71
2022/06/07 10:59:31;;;;;;;1.10;0.70;;;20.90;76.80;;;;;;5089187;27;45635;-71
2022/06/07 11:02:04;;;;;;;2.83;0.68;;;21.00;76.70;;;;;;5084990;27;45532;-71
2022/06/07 11:10:21;;;;;;;2.45;0.95;;;21.20;74.40;;;;;;5080699;27;45173;-71
2022/06/07 11:12:54;;;;;;;1.85;1.13;;;21.10;75.40;;;;;;5078979;28;45224;-71
2022/06/07 11:15:31;;;;;;;4.85;0.80;;;21.20;75.00;;;;;;5084082;27;45240;-71
2022/06/07 11:18:05;;;;;;;3.72;1.15;;;21.10;74.10;;;;;;5085926;27;46406;-71
2022/06/07 11:20:36;;;;;;;9.07;1.13;;;20.90;72.80;;;;;;5076721;27;45642;-71
2022/06/07 11:23:09;;;;;;;4.10;0.77;;;20.80;74.10;;;;;;5083326;27;45174;-71
2022/06/07 11:25:39;;;;;;;3.00;0.90;;;20.90;76.00;;;;;;5082843;27;45379;-71
2022/06/07 11:28:12;;;;;;;5.13;0.90;;;20.90;72.60;;;;;;5079709;27;48038;-71
2022/06/07 11:30:45;;;;;;;3.58;1.10;;;20.90;75.50;;;;;;5087144;27;45188;-71
2022/06/07 11:33:42;;;;;;;3.47;1.00;;;20.90;76.30;;;;;;5081420;27;47955;-71
2022/06/07 11:36:40;;;;;;;2.92;0.90;;;20.80;76.30;;;;;;5043514;27;45192;-71
2022/06/07 11:39:40;;;;;;;2.50;0.98;;;20.80;76.60;;;;;;5091393;27;47856;-71
2022/06/07 11:42:29;;;;;;;2.58;1.02;;;20.70;76.40;;;;;;5082313;27;45179;-71
2022/06/07 11:45:18;;;;;;;3.92;0.98;;;20.60;77.30;;;;;;5080256;27;46645;-71
2022/06/07 11:48:05;;;;;;;1.10;0.70;;;20.40;76.40;;;;;;5082566;27;45208;-71
2022/06/07 11:50:41;;;;;;;3.20;1.00;;;20.30;78.50;;;;;;5073720;27;47398;-71
2022/06/07 11:53:25;;;;;;;5.00;1.40;;;20.30;79.20;;;;;;5080797;27;45491;-71
2022/06/07 11:56:00;;;;;;;3.20;1.00;;;20.40;80.80;;;;;;5085819;28;45169;-71
2022/06/07 11:59:06;;;;;;;3.20;1.02;;;20.40;81.00;;;;;;5084939;28;45209;-71
2022/06/07 12:01:38;;;;;;;12.55;1.45;;;20.40;81.60;;;;;;5068382;27;45495;-71
2022/06/07 12:04:41;;;;;;;3.72;1.00;;;20.40;80.80;;;;;;5071464;28;45279;-71
2022/06/07 12:07:18;;;;;;;0.85;0.60;;;20.40;80.90;;;;;;5078771;27;45273;-71
2022/06/07 12:09:51;;;;;;;4.57;1.00;;;20.40;81.90;;;;;;5080568;27;45248;-71
2022/06/07 12:12:22;;;;;;;3.38;0.90;;;20.30;84.00;;;;;;5076210;27;47290;-70
2022/06/07 12:14:52;;;;;;;2.95;1.13;;;20.30;84.60;;;;;;5087395;28;45839;-70
2022/06/07 12:17:24;;;;;;;2.40;1.10;;;20.20;84.20;;;;;;5086627;27;45284;-70
2022/06/07 12:19:51;;;;;;;4.38;1.08;;;20.30;85.10;;;;;;5097103;27;45210;-71
2022/06/07 12:22:21;;;;;;;4.78;1.13;;;20.40;82.60;;;;;;5087894;28;47370;-71
2022/06/07 12:24:53;;;;;;;1.70;1.10;;;20.40;83.40;;;;;;5087308;27;45309;-71
2022/06/07 12:27:24;;;;;;;3.83;1.13;;;20.30;83.60;;;;;;5087139;27;45544;-71
2022/06/07 12:29:53;;;;;;;5.20;1.30;;;20.20;84.30;;;;;;5095288;27;45308;-71
2022/06/07 12:32:22;;;;;;;3.97;1.20;;;20.00;85.70;;;;;;5096524;27;46563;-71
2022/06/07 12:35:05;;;;;;;3.10;1.05;;;19.90;87.60;;;;;;5085516;27;45165;-71
2022/06/07 12:37:35;;;;;;;3.40;1.45;;;19.90;88.00;;;;;;5086105;27;45270;-71
2022/06/07 12:40:04;;;;;;;8.07;1.98;;;19.80;88.20;;;;;;5090674;27;45441;-71
2022/06/07 12:42:33;;;;;;;11.50;2.45;;;19.80;87.30;;;;;;5094264;27;45787;-71
2022/06/07 12:45:01;;;;;;;3.80;1.73;;;19.80;88.10;;;;;;5109569;27;45696;-71
2022/06/07 12:47:35;;;;;;;6.28;1.80;;;19.90;89.40;;;;;;5089373;27;45681;-71
2022/06/07 12:50:03;;;;;;;6.07;1.95;;;19.80;89.70;;;;;;5087371;28;45525;-71
2022/06/07 12:52:34;;;;;;;4.97;1.90;;;19.80;90.40;;;;;;5093332;27;45581;-71
2022/06/07 12:55:13;;;;;;;7.55;2.75;;;19.60;95.40;;;;;;5086901;28;45134;-71
2022/06/07 12:57:45;;;;;;;5.43;2.10;;;19.40;99.90;;;;;;5089693;27;45438;-71
2022/06/07 13:00:16;;;;;;;4.05;2.20;;;19.00;99.60;;;;;;5088827;28;45617;-71
2022/06/07 13:02:46;;;;;;;3.10;1.45;;;19.00;98.60;;;;;;5087935;28;45234;-71
2022/06/07 13:05:19;;;;;;;10.45;1.70;;;19.00;97.40;;;;;;5087219;27;45204;-71
2022/06/07 13:07:48;;;;;;;7.53;2.03;;;18.80;98.10;;;;;;5084943;27;45146;-70
2022/06/07 13:10:19;;;;;;;3.47;1.70;;;18.80;99.90;;;;;;5085794;27;45390;-70
2022/06/07 13:12:51;;;;;;;3.67;1.60;;;18.80;99.90;;;;;;5083339;27;47159;-71
2022/06/07 13:15:21;;;;;;;4.28;2.25;;;18.80;99.90;;;;;;5088059;28;45177;-71
2022/06/07 13:17:59;;;;;;;3.67;2.25;;;18.80;99.90;;;;;;5088061;28;45171;-70
2022/06/07 13:20:30;;;;;;;4.82;2.60;;;18.70;99.90;;;;;;5075250;27;45570;-71
2022/06/07 13:22:57;;;;;;;2.70;2.05;;;18.80;99.90;;;;;;5080923;27;48068;-71
2022/06/07 13:25:31;;;;;;;4.38;2.25;;;18.80;99.90;;;;;;5080559;27;45595;-71